createdAt,value
2018-08-24T00:00:32.431Z,19.79
2018-08-24T00:01:32.403Z,19.84
2018-08-24T00:02:32.332Z,19.81
2018-08-24T00:03:32.282Z,19.82
2018-08-24T00:04:32.232Z,19.78
2018-08-24T00:05:32.187Z,19.79
2018-08-24T00:06:32.165Z,19.79
2018-08-24T00:07:32.092Z,19.76
2018-08-24T00:08:32.206Z,19.78
2018-08-24T00:09:32.005Z,19.70
2018-08-24T00:10:32.301Z,19.74
2018-08-24T00:11:31.933Z,19.69
2018-08-24T00:12:31.862Z,19.66
2018-08-24T00:13:31.832Z,19.71
2018-08-24T00:14:32.028Z,19.69
2018-08-24T00:15:31.803Z,19.69
2018-08-24T00:16:31.699Z,19.66
2018-08-24T00:17:31.635Z,19.70
2018-08-24T00:18:31.583Z,19.74
2018-08-24T00:19:31.537Z,19.70
2018-08-24T00:20:31.758Z,19.73
2018-08-24T00:21:31.507Z,19.79
2018-08-24T00:22:31.415Z,19.81
2018-08-24T00:23:31.351Z,19.82
2018-08-24T00:24:31.311Z,19.81
2018-08-24T00:25:31.258Z,19.76
2018-08-24T00:26:31.236Z,19.73
2018-08-24T00:27:31.170Z,19.81
2018-08-24T00:28:31.147Z,19.76
2018-08-24T00:29:31.074Z,19.70
2018-08-24T00:30:31.059Z,19.66
2018-08-24T00:31:31.005Z,19.70
2018-08-24T00:32:30.969Z,19.74
2018-08-24T00:33:30.891Z,19.69
2018-08-24T00:34:30.873Z,19.67
2018-08-24T00:35:30.962Z,19.70
2018-08-24T00:36:30.762Z,19.81
2018-08-24T00:37:30.832Z,19.82
2018-08-24T00:38:30.701Z,19.79
2018-08-24T00:39:30.632Z,19.82
2018-08-24T00:40:30.563Z,19.88
2018-08-24T00:41:30.674Z,19.81
2018-08-24T00:42:30.560Z,19.92
2018-08-24T00:43:30.423Z,19.88
2018-08-24T00:44:30.379Z,19.92
2018-08-24T00:45:30.331Z,19.85
2018-08-24T00:46:30.290Z,19.86
2018-08-24T00:47:30.261Z,19.85
2018-08-24T00:48:30.209Z,19.96
2018-08-24T00:49:30.150Z,19.89
2018-08-24T00:50:30.107Z,19.89
2018-08-24T00:51:30.048Z,19.99
2018-08-24T00:52:30.026Z,19.96
2018-08-24T00:53:29.983Z,20.00
2018-08-24T00:54:30.183Z,20.00
2018-08-24T00:55:29.869Z,19.99
2018-08-24T00:56:29.819Z,19.96
2018-08-24T00:57:29.814Z,19.99
2018-08-24T00:58:29.723Z,19.97
2018-08-24T00:59:29.688Z,19.96
2018-08-24T01:00:29.632Z,20.03
2018-08-24T01:01:29.586Z,20.01
2018-08-24T01:02:29.614Z,19.96
2018-08-24T01:03:29.503Z,20.10
2018-08-24T01:04:29.494Z,20.03
2018-08-24T01:05:29.404Z,19.96
2018-08-24T01:06:29.363Z,19.96
2018-08-24T01:07:29.366Z,19.99
2018-08-24T01:08:29.461Z,20.00
2018-08-24T01:09:29.220Z,19.94
2018-08-24T01:10:29.183Z,19.99
2018-08-24T01:11:29.128Z,19.91
2018-08-24T01:12:29.113Z,19.85
2018-08-24T01:13:29.032Z,19.89
2018-08-24T01:14:28.998Z,19.92
2018-08-24T01:15:28.938Z,19.89
2018-08-24T01:16:28.893Z,19.81
2018-08-24T01:17:28.868Z,19.85
2018-08-24T01:18:28.912Z,19.91
2018-08-24T01:19:28.967Z,19.81
2018-08-24T01:20:28.725Z,19.81
2018-08-24T01:21:28.667Z,19.81
2018-08-24T01:22:28.744Z,19.79
2018-08-24T01:23:28.565Z,19.82
2018-08-24T01:24:28.551Z,19.84
2018-08-24T01:25:28.470Z,19.84
2018-08-24T01:26:28.430Z,19.76
2018-08-24T01:27:28.423Z,19.70
2018-08-24T01:28:28.372Z,19.79
2018-08-24T01:29:28.290Z,19.82
2018-08-24T01:30:28.260Z,19.71
2018-08-24T01:31:28.194Z,19.76
2018-08-24T01:32:28.185Z,19.60
2018-08-24T01:33:28.114Z,19.55
2018-08-24T01:34:28.061Z,19.44
2018-08-24T01:35:28.012Z,19.39
2018-08-24T01:36:27.969Z,19.29
2018-08-24T01:37:27.912Z,19.22
2018-08-24T01:38:27.900Z,19.16
2018-08-24T01:39:27.822Z,19.08
2018-08-24T01:40:27.790Z,18.98
2018-08-24T01:41:27.730Z,18.98
2018-08-24T01:42:27.686Z,18.96
2018-08-24T01:43:27.658Z,18.89
2018-08-24T01:44:27.632Z,18.89
2018-08-24T01:45:27.543Z,18.92
2018-08-24T01:46:27.497Z,18.83
2018-08-24T01:47:27.451Z,18.88
2018-08-24T01:48:27.428Z,18.80
2018-08-24T01:49:27.353Z,18.81
2018-08-24T01:50:27.326Z,18.75
2018-08-24T01:51:27.264Z,18.78
2018-08-24T01:52:27.255Z,18.70
2018-08-24T01:53:27.349Z,18.70
2018-08-24T01:54:27.340Z,18.70
2018-08-24T01:55:27.220Z,18.67
2018-08-24T01:56:27.121Z,18.70
2018-08-24T01:57:26.980Z,18.59
2018-08-24T01:58:26.959Z,18.62
2018-08-24T01:59:26.884Z,18.63
2018-08-24T02:00:26.836Z,18.63
2018-08-24T02:01:26.833Z,18.52
2018-08-24T02:02:26.754Z,18.60
2018-08-24T02:03:26.751Z,18.58
2018-08-24T02:04:26.666Z,18.55
2018-08-24T02:05:26.612Z,18.55
2018-08-24T02:06:26.573Z,18.56
2018-08-24T02:07:26.509Z,18.56
2018-08-24T02:08:26.505Z,18.53
2018-08-24T02:09:26.419Z,18.58
2018-08-24T02:10:26.412Z,18.62
2018-08-24T02:11:26.320Z,18.58
2018-08-24T02:12:26.284Z,18.56
2018-08-24T02:13:26.226Z,18.60
2018-08-24T02:14:26.294Z,18.66
2018-08-24T02:15:26.201Z,18.67
2018-08-24T02:16:26.105Z,18.60
2018-08-24T02:17:26.040Z,18.62
2018-08-24T02:18:26.015Z,18.63
2018-08-24T02:19:25.968Z,18.74
2018-08-24T02:20:26.154Z,18.66
2018-08-24T02:21:25.847Z,18.81
2018-08-24T02:22:25.844Z,18.75
2018-08-24T02:23:25.782Z,18.68
2018-08-24T02:24:25.813Z,18.70
2018-08-24T02:25:25.665Z,18.74
2018-08-24T02:26:25.682Z,18.78
2018-08-24T02:27:25.562Z,18.77
2018-08-24T02:28:25.523Z,18.78
2018-08-24T02:29:25.495Z,18.80
2018-08-24T02:30:25.463Z,18.73
2018-08-24T02:31:25.386Z,18.73
2018-08-24T02:32:25.333Z,18.66
2018-08-24T02:33:25.345Z,18.59
2018-08-24T02:34:25.260Z,18.59
2018-08-24T02:35:25.190Z,18.56
2018-08-24T02:36:25.298Z,18.55
2018-08-24T02:37:25.094Z,18.58
2018-08-24T02:38:25.046Z,18.55
2018-08-24T02:39:25.076Z,18.55
2018-08-24T02:40:24.957Z,18.55
2018-08-24T02:41:24.937Z,18.60
2018-08-24T02:42:24.863Z,18.56
2018-08-24T02:43:24.811Z,18.60
2018-08-24T02:44:24.792Z,18.60
2018-08-24T02:45:24.721Z,18.48
2018-08-24T02:46:24.670Z,18.43
2018-08-24T02:47:24.784Z,18.49
2018-08-24T02:48:24.577Z,18.48
2018-08-24T02:49:24.554Z,18.46
2018-08-24T02:50:24.484Z,18.48
2018-08-24T02:51:24.439Z,18.43
2018-08-24T02:52:24.388Z,18.43
2018-08-24T02:53:24.342Z,18.46
2018-08-24T02:54:24.317Z,18.48
2018-08-24T02:55:24.261Z,18.44
2018-08-24T02:56:24.206Z,18.35
2018-08-24T02:57:24.155Z,18.40
2018-08-24T02:58:24.109Z,18.43
2018-08-24T02:59:24.152Z,18.46
2018-08-24T03:00:24.029Z,18.38
2018-08-24T03:01:23.965Z,18.40
2018-08-24T03:02:23.924Z,18.43
2018-08-24T03:03:23.880Z,18.48
2018-08-24T03:04:23.862Z,18.43
2018-08-24T03:05:23.892Z,18.46
2018-08-24T03:06:23.728Z,18.40
2018-08-24T03:07:23.684Z,18.49
2018-08-24T03:08:23.714Z,18.48
2018-08-24T03:09:23.595Z,18.48
2018-08-24T03:10:23.566Z,18.49
2018-08-24T03:11:23.494Z,18.49
2018-08-24T03:12:23.446Z,18.55
2018-08-24T03:13:23.398Z,18.44
2018-08-24T03:14:23.357Z,18.41
2018-08-24T03:15:23.463Z,18.40
2018-08-24T03:16:23.323Z,18.34
2018-08-24T03:17:23.213Z,18.34
2018-08-24T03:18:23.167Z,18.33
2018-08-24T03:19:23.117Z,18.33
2018-08-24T03:20:23.110Z,18.28
2018-08-24T03:21:23.029Z,18.25
2018-08-24T03:22:22.971Z,18.30
2018-08-24T03:23:22.931Z,18.25
2018-08-24T03:24:22.879Z,18.26
2018-08-24T03:25:22.861Z,18.23
2018-08-24T03:26:22.792Z,18.23
2018-08-24T03:27:22.749Z,18.23
2018-08-24T03:28:22.709Z,18.19
2018-08-24T03:29:22.683Z,18.09
2018-08-24T03:30:22.620Z,18.10
2018-08-24T03:31:22.553Z,18.16
2018-08-24T03:32:22.501Z,18.13
2018-08-24T03:33:22.458Z,18.15
2018-08-24T03:34:22.464Z,18.23
2018-08-24T03:35:22.388Z,18.23
2018-08-24T03:36:22.328Z,18.23
2018-08-24T03:37:22.266Z,18.23
2018-08-24T03:38:22.222Z,18.22
2018-08-24T03:39:22.173Z,18.28
2018-08-24T03:40:22.277Z,18.30
2018-08-24T03:41:22.081Z,18.25
2018-08-24T03:42:22.053Z,18.34
2018-08-24T03:43:22.006Z,18.28
2018-08-24T03:44:21.959Z,18.31
2018-08-24T03:45:21.921Z,18.28
2018-08-24T03:46:21.845Z,18.20
2018-08-24T03:47:21.791Z,18.22
2018-08-24T03:48:21.755Z,18.30
2018-08-24T03:49:21.734Z,18.22
2018-08-24T03:50:21.679Z,18.20
2018-08-24T03:51:21.607Z,18.23
2018-08-24T03:52:21.568Z,18.18
2018-08-24T03:53:21.685Z,18.18
2018-08-24T03:54:21.461Z,18.19
2018-08-24T03:55:21.853Z,18.13
2018-08-24T03:56:21.371Z,18.18
2018-08-24T03:57:21.345Z,18.03
2018-08-24T03:58:21.297Z,18.03
2018-08-24T03:59:21.263Z,18.13
2018-08-24T04:00:21.272Z,18.03
2018-08-24T04:01:21.136Z,17.97
2018-08-24T04:02:21.087Z,18.03
2018-08-24T04:03:21.072Z,17.97
2018-08-24T04:04:20.996Z,18.01
2018-08-24T04:05:20.972Z,18.00
2018-08-24T04:06:20.900Z,17.98
2018-08-24T04:07:20.854Z,18.04
2018-08-24T04:08:20.804Z,18.00
2018-08-24T04:09:20.758Z,18.01
2018-08-24T04:10:20.730Z,18.04
2018-08-24T04:11:20.661Z,18.01
2018-08-24T04:12:20.613Z,18.15
2018-08-24T04:13:20.695Z,18.16
2018-08-24T04:14:20.583Z,18.16
2018-08-24T04:15:20.500Z,18.13
2018-08-24T04:16:20.437Z,18.13
2018-08-24T04:17:20.395Z,18.12
2018-08-24T04:18:20.332Z,18.19
2018-08-24T04:19:20.310Z,18.22
2018-08-24T04:20:20.257Z,18.19
2018-08-24T04:21:20.228Z,18.19
2018-08-24T04:22:20.146Z,18.22
2018-08-24T04:23:20.103Z,18.25
2018-08-24T04:24:20.046Z,18.22
2018-08-24T04:25:20.032Z,18.16
2018-08-24T04:26:19.989Z,18.16
2018-08-24T04:27:19.974Z,18.16
2018-08-24T04:28:19.856Z,18.09
2018-08-24T04:29:19.808Z,18.09
2018-08-24T04:30:19.806Z,18.18
2018-08-24T04:31:19.716Z,18.20
2018-08-24T04:32:19.673Z,18.13
2018-08-24T04:33:19.621Z,18.18
2018-08-24T04:34:19.649Z,18.15
2018-08-24T04:35:19.641Z,18.23
2018-08-24T04:36:19.480Z,18.19
2018-08-24T04:37:19.439Z,18.20
2018-08-24T04:38:19.383Z,18.23
2018-08-24T04:39:19.344Z,18.28
2018-08-24T04:40:19.351Z,18.28
2018-08-24T04:41:19.277Z,18.25
2018-08-24T04:42:19.203Z,18.25
2018-08-24T04:43:19.150Z,18.28
2018-08-24T04:44:20.316Z,18.33
2018-08-24T04:45:19.107Z,18.31
2018-08-24T04:46:19.061Z,18.31
2018-08-24T04:47:18.987Z,18.33
2018-08-24T04:48:18.917Z,18.25
2018-08-24T04:49:18.882Z,18.26
2018-08-24T04:50:18.881Z,18.33
2018-08-24T04:51:18.861Z,18.37
2018-08-24T04:52:18.727Z,18.34
2018-08-24T04:53:18.693Z,18.34
2018-08-24T04:54:18.632Z,18.30
2018-08-24T04:55:18.580Z,18.26
2018-08-24T04:56:18.575Z,18.30
2018-08-24T04:57:18.483Z,18.25
2018-08-24T04:58:18.507Z,18.25
2018-08-24T04:59:18.392Z,18.22
2018-08-24T05:00:18.341Z,18.26
2018-08-24T05:01:18.325Z,18.28
2018-08-24T05:02:18.254Z,18.23
2018-08-24T05:03:18.220Z,18.28
2018-08-24T05:04:18.157Z,18.26
2018-08-24T05:05:18.109Z,18.25
2018-08-24T05:06:18.082Z,18.26
2018-08-24T05:07:18.018Z,18.26
2018-08-24T05:08:17.969Z,18.33
2018-08-24T05:09:17.921Z,18.28
2018-08-24T05:10:17.878Z,18.25
2018-08-24T05:11:17.855Z,18.28
2018-08-24T05:12:17.786Z,18.23
2018-08-24T05:13:17.734Z,18.20
2018-08-24T05:14:17.684Z,18.23
2018-08-24T05:15:17.643Z,18.25
2018-08-24T05:16:17.616Z,18.25
2018-08-24T05:17:17.576Z,18.25
2018-08-24T05:18:17.498Z,18.22
2018-08-24T05:19:17.472Z,18.28
2018-08-24T05:20:17.402Z,18.26
2018-08-24T05:21:17.442Z,18.34
2018-08-24T05:22:17.306Z,18.34
2018-08-24T05:23:17.257Z,18.30
2018-08-24T05:24:17.215Z,18.35
2018-08-24T05:25:17.172Z,18.41
2018-08-24T05:26:17.143Z,18.33
2018-08-24T05:27:17.086Z,18.38
2018-08-24T05:28:17.093Z,18.41
2018-08-24T05:29:16.982Z,18.46
2018-08-24T05:30:16.938Z,18.44
2018-08-24T05:31:16.919Z,18.34
2018-08-24T05:32:16.833Z,18.30
2018-08-24T05:33:16.798Z,18.35
2018-08-24T05:34:16.743Z,18.34
2018-08-24T05:35:16.692Z,18.34
2018-08-24T05:36:16.719Z,18.35
2018-08-24T05:37:16.605Z,18.31
2018-08-24T05:38:16.555Z,18.28
2018-08-24T05:39:16.508Z,18.22
2018-08-24T05:40:16.464Z,18.15
2018-08-24T05:41:16.446Z,18.13
2018-08-24T05:42:16.376Z,18.16
2018-08-24T05:43:16.322Z,18.13
2018-08-24T05:44:16.336Z,18.12
2018-08-24T05:45:16.225Z,18.09
2018-08-24T05:46:16.208Z,18.16
2018-08-24T05:47:16.130Z,18.13
2018-08-24T05:48:16.109Z,18.15
2018-08-24T05:49:16.042Z,18.04
2018-08-24T05:50:16.061Z,18.03
2018-08-24T05:51:15.962Z,18.01
2018-08-24T05:52:15.889Z,18.09
2018-08-24T05:53:15.846Z,18.12
2018-08-24T05:54:15.804Z,18.07
2018-08-24T05:55:15.762Z,18.16
2018-08-24T05:56:15.732Z,18.07
2018-08-24T05:57:15.667Z,18.13
2018-08-24T05:58:15.613Z,18.13
2018-08-24T05:59:15.621Z,18.18
2018-08-24T06:00:15.535Z,18.10
2018-08-24T06:01:15.504Z,18.12
2018-08-24T06:02:15.423Z,18.23
2018-08-24T06:03:15.380Z,18.26
2018-08-24T06:04:15.324Z,18.23
2018-08-24T06:05:15.285Z,18.22
2018-08-24T06:06:15.235Z,18.25
2018-08-24T06:07:15.301Z,18.23
2018-08-24T06:08:15.146Z,18.26
2018-08-24T06:09:15.098Z,18.18
2018-08-24T06:10:15.047Z,18.19
2018-08-24T06:11:15.013Z,18.19
2018-08-24T06:12:14.977Z,18.19
2018-08-24T06:13:14.905Z,18.23
2018-08-24T06:14:14.866Z,18.20
2018-08-24T06:15:14.812Z,18.18
2018-08-24T06:16:14.783Z,18.22
2018-08-24T06:17:14.746Z,18.19
2018-08-24T06:18:14.669Z,18.30
2018-08-24T06:19:14.627Z,18.22
2018-08-24T06:20:14.574Z,18.25
2018-08-24T06:21:14.529Z,18.28
2018-08-24T06:22:14.507Z,18.30
2018-08-24T06:23:14.434Z,18.28
2018-08-24T06:24:14.391Z,18.37
2018-08-24T06:25:14.346Z,18.34
2018-08-24T06:26:14.315Z,18.34
2018-08-24T06:27:14.268Z,18.43
2018-08-24T06:28:14.259Z,18.43
2018-08-24T06:29:14.278Z,18.43
2018-08-24T06:30:14.100Z,18.43
2018-08-24T06:31:14.070Z,18.59
2018-08-24T06:32:14.043Z,18.53
2018-08-24T06:33:13.967Z,18.59
2018-08-24T06:34:13.917Z,18.55
2018-08-24T06:35:13.862Z,18.59
2018-08-24T06:36:13.878Z,18.63
2018-08-24T06:37:13.799Z,18.60
2018-08-24T06:38:13.728Z,18.62
2018-08-24T06:39:13.686Z,18.55
2018-08-24T06:40:13.630Z,18.67
2018-08-24T06:41:13.588Z,18.75
2018-08-24T06:42:13.562Z,18.70
2018-08-24T06:43:13.488Z,18.70
2018-08-24T06:44:13.449Z,18.70
2018-08-24T06:45:13.458Z,18.78
2018-08-24T06:46:13.353Z,18.78
2018-08-24T06:47:13.381Z,18.78
2018-08-24T06:48:13.259Z,18.78
2018-08-24T06:49:13.222Z,18.75
2018-08-24T06:50:13.167Z,18.75
2018-08-24T06:51:13.120Z,18.74
2018-08-24T06:52:13.097Z,18.78
2018-08-24T06:53:13.111Z,18.70
2018-08-24T06:54:12.980Z,18.74
2018-08-24T06:55:12.942Z,18.70
2018-08-24T06:56:12.887Z,18.71
2018-08-24T06:57:12.878Z,18.68
2018-08-24T06:58:12.794Z,18.63
2018-08-24T06:59:12.745Z,18.66
2018-08-24T07:00:12.697Z,18.59
2018-08-24T07:01:12.682Z,18.73
2018-08-24T07:02:12.634Z,18.70
2018-08-24T07:03:12.564Z,18.59
2018-08-24T07:04:12.547Z,18.74
2018-08-24T07:05:12.472Z,18.74
2018-08-24T07:06:12.415Z,18.71
2018-08-24T07:07:12.397Z,18.75
2018-08-24T07:08:12.328Z,18.62
2018-08-24T07:09:12.276Z,18.68
2018-08-24T07:10:12.238Z,18.77
2018-08-24T07:11:12.189Z,18.88
2018-08-24T07:12:12.165Z,18.86
2018-08-24T07:13:12.096Z,18.93
2018-08-24T07:14:12.041Z,18.95
2018-08-24T07:15:11.993Z,18.99
2018-08-24T07:16:11.948Z,18.99
2018-08-24T07:17:11.925Z,19.00
2018-08-24T07:18:11.858Z,19.04
2018-08-24T07:19:11.853Z,19.11
2018-08-24T07:20:11.764Z,19.12
2018-08-24T07:21:11.780Z,19.07
2018-08-24T07:22:11.848Z,19.08
2018-08-24T07:23:11.632Z,19.09
2018-08-24T07:24:12.498Z,19.15
2018-08-24T07:25:11.601Z,19.12
2018-08-24T07:26:11.481Z,19.12
2018-08-24T07:27:11.436Z,19.18
2018-08-24T07:28:11.410Z,19.04
2018-08-24T07:29:11.340Z,19.09
2018-08-24T07:30:11.298Z,18.98
2018-08-24T07:31:11.253Z,19.07
2018-08-24T07:32:11.203Z,18.98
2018-08-24T07:33:11.178Z,18.99
2018-08-24T07:34:11.107Z,19.04
2018-08-24T07:35:11.065Z,19.08
2018-08-24T07:36:11.023Z,19.07
2018-08-24T07:37:10.970Z,19.00
2018-08-24T07:38:10.950Z,19.07
2018-08-24T07:39:10.875Z,19.05
2018-08-24T07:40:10.829Z,18.96
2018-08-24T07:41:10.780Z,18.98
2018-08-24T07:42:10.737Z,19.00
2018-08-24T07:43:10.718Z,18.98
2018-08-24T07:44:10.641Z,19.05
2018-08-24T07:45:10.598Z,19.04
2018-08-24T07:46:10.559Z,18.98
2018-08-24T07:47:11.395Z,18.96
2018-08-24T07:48:10.478Z,18.99
2018-08-24T07:49:10.413Z,19.04
2018-08-24T07:50:10.363Z,18.98
2018-08-24T07:51:10.314Z,18.96
2018-08-24T07:52:10.273Z,19.04
2018-08-24T07:53:10.252Z,18.95
2018-08-24T07:54:10.181Z,19.00
2018-08-24T07:55:10.126Z,19.04
2018-08-24T07:56:10.085Z,19.12
2018-08-24T07:57:10.147Z,19.12
2018-08-24T07:58:10.013Z,19.19
2018-08-24T07:59:09.963Z,19.12
2018-08-24T08:00:09.897Z,19.24
2018-08-24T08:01:09.857Z,19.27
2018-08-24T08:02:09.806Z,19.26
2018-08-24T08:03:09.780Z,19.24
2018-08-24T08:04:09.763Z,19.26
2018-08-24T08:05:09.722Z,19.27
2018-08-24T08:06:09.625Z,19.34
2018-08-24T08:07:09.568Z,19.34
2018-08-24T08:08:09.554Z,19.29
2018-08-24T08:09:09.473Z,19.26
2018-08-24T08:10:09.451Z,19.42
2018-08-24T08:11:09.387Z,19.45
2018-08-24T08:12:09.335Z,19.46
2018-08-24T08:13:09.731Z,19.46
2018-08-24T08:14:09.247Z,19.55
2018-08-24T08:15:09.202Z,19.56
2018-08-24T08:16:09.151Z,19.52
2018-08-24T08:17:09.105Z,19.54
2018-08-24T08:18:09.130Z,19.52
2018-08-24T08:19:09.012Z,19.52
2018-08-24T08:20:08.975Z,19.55
2018-08-24T08:21:08.916Z,19.55
2018-08-24T08:22:08.887Z,19.62
2018-08-24T08:23:08.852Z,19.70
2018-08-24T08:24:08.776Z,19.70
2018-08-24T08:25:08.731Z,19.74
2018-08-24T08:26:08.695Z,19.78
2018-08-24T08:27:08.642Z,19.84
2018-08-24T08:28:08.620Z,19.79
2018-08-24T08:29:08.555Z,19.73
2018-08-24T08:30:08.500Z,19.74
2018-08-24T08:31:08.450Z,19.76
2018-08-24T08:32:08.409Z,19.73
2018-08-24T08:33:08.385Z,19.71
2018-08-24T08:34:08.315Z,19.63
2018-08-24T08:35:08.266Z,19.60
2018-08-24T08:36:08.223Z,19.48
2018-08-24T08:37:08.176Z,19.37
2018-08-24T08:38:08.154Z,19.44
2018-08-24T08:39:08.176Z,19.37
2018-08-24T08:40:08.033Z,19.36
2018-08-24T08:41:07.989Z,19.39
2018-08-24T08:42:07.949Z,19.30
2018-08-24T08:43:07.949Z,19.31
2018-08-24T08:44:07.865Z,19.27
2018-08-24T08:45:07.811Z,19.24
2018-08-24T08:46:07.764Z,19.24
2018-08-24T08:47:07.709Z,19.18
2018-08-24T08:48:07.663Z,19.22
2018-08-24T08:49:07.643Z,19.27
2018-08-24T08:50:07.573Z,19.37
2018-08-24T08:51:07.521Z,19.37
2018-08-24T08:52:07.487Z,19.44
2018-08-24T08:53:07.443Z,19.39
2018-08-24T08:54:07.410Z,19.34
2018-08-24T08:55:07.357Z,19.26
2018-08-24T08:56:07.295Z,19.31
2018-08-24T08:57:07.251Z,19.34
2018-08-24T08:58:07.204Z,19.23
2018-08-24T08:59:07.183Z,19.18
2018-08-24T09:00:07.124Z,19.23
2018-08-24T09:01:07.061Z,19.22
2018-08-24T09:02:07.025Z,19.19
2018-08-24T09:03:06.966Z,19.19
2018-08-24T09:04:06.951Z,19.19
2018-08-24T09:05:06.876Z,19.09
2018-08-24T09:06:06.871Z,19.11
2018-08-24T09:07:06.777Z,18.96
2018-08-24T09:08:06.737Z,18.92
2018-08-24T09:09:06.711Z,18.78
2018-08-24T09:10:06.644Z,18.74
2018-08-24T09:11:06.596Z,18.74
2018-08-24T09:12:06.551Z,18.83
2018-08-24T09:13:06.535Z,18.67
2018-08-24T09:14:06.479Z,18.75
2018-08-24T09:15:06.405Z,18.78
2018-08-24T09:16:06.360Z,18.68
2018-08-24T09:17:06.323Z,18.73
2018-08-24T09:18:06.274Z,18.75
2018-08-24T09:19:06.251Z,18.68
2018-08-24T09:20:06.180Z,18.77
2018-08-24T09:21:06.134Z,18.81
2018-08-24T09:22:06.088Z,18.73
2018-08-24T09:23:06.043Z,18.63
2018-08-24T09:24:06.017Z,18.74
2018-08-24T09:25:05.941Z,18.70
2018-08-24T09:26:05.890Z,18.74
2018-08-24T09:27:05.841Z,18.77
2018-08-24T09:28:05.827Z,18.75
2018-08-24T09:29:05.782Z,18.71
2018-08-24T09:30:05.704Z,18.75
2018-08-24T09:31:05.659Z,18.71
2018-08-24T09:32:05.608Z,18.70
2018-08-24T09:33:05.567Z,18.67
2018-08-24T09:34:05.552Z,18.74
2018-08-24T09:35:05.471Z,18.68
2018-08-24T09:36:05.424Z,18.73
2018-08-24T09:37:05.377Z,18.67
2018-08-24T09:38:05.336Z,18.77
2018-08-24T09:39:05.306Z,18.81
2018-08-24T09:40:05.239Z,18.74
2018-08-24T09:41:05.198Z,18.81
2018-08-24T09:42:05.399Z,18.83
2018-08-24T09:43:05.158Z,18.85
2018-08-24T09:44:05.083Z,18.80
2018-08-24T09:45:04.999Z,18.86
2018-08-24T09:46:04.983Z,18.78
2018-08-24T09:47:04.935Z,18.81
2018-08-24T09:48:04.864Z,18.81
2018-08-24T09:49:04.828Z,18.78
2018-08-24T09:50:04.796Z,18.93
2018-08-24T09:51:04.724Z,18.96
2018-08-24T09:52:04.677Z,18.99
2018-08-24T09:53:04.627Z,18.90
2018-08-24T09:54:04.606Z,18.98
2018-08-24T09:55:04.557Z,19.00
2018-08-24T09:56:04.577Z,19.12
2018-08-24T09:57:04.446Z,19.11
2018-08-24T09:58:04.398Z,19.23
2018-08-24T09:59:04.353Z,19.22
2018-08-24T10:00:04.354Z,19.27
2018-08-24T10:01:04.408Z,19.27
2018-08-24T10:02:04.212Z,19.39
2018-08-24T10:03:04.164Z,19.46
2018-08-24T10:04:04.112Z,19.60
2018-08-24T10:05:04.096Z,19.67
2018-08-24T10:06:04.052Z,19.73
2018-08-24T10:07:03.973Z,19.91
2018-08-24T10:08:04.013Z,20.03
2018-08-24T10:09:03.881Z,20.14
2018-08-24T10:10:03.864Z,20.19
2018-08-24T10:11:03.831Z,20.25
2018-08-24T10:12:03.743Z,20.25
2018-08-24T10:13:03.699Z,20.29
2018-08-24T10:14:03.672Z,20.34
2018-08-24T10:15:03.692Z,20.22
2018-08-24T10:16:03.561Z,20.28
2018-08-24T10:17:03.513Z,20.25
2018-08-24T10:18:03.473Z,20.24
2018-08-24T10:19:03.421Z,20.18
2018-08-24T10:20:03.399Z,20.17
2018-08-24T10:21:03.503Z,20.17
2018-08-24T10:22:03.285Z,20.17
2018-08-24T10:23:03.283Z,20.18
2018-08-24T10:24:03.195Z,20.18
2018-08-24T10:25:03.197Z,20.33
2018-08-24T10:26:03.112Z,20.25
2018-08-24T10:27:03.049Z,20.33
2018-08-24T10:28:03.102Z,20.41
2018-08-24T10:29:03.143Z,20.41
2018-08-24T10:30:02.947Z,20.52
2018-08-24T10:31:02.864Z,20.59
2018-08-24T10:32:03.213Z,20.41
2018-08-24T10:33:02.779Z,20.28
2018-08-24T10:34:02.740Z,20.19
2018-08-24T10:35:02.710Z,20.01
2018-08-24T10:36:02.835Z,20.07
2018-08-24T10:37:02.595Z,20.00
2018-08-24T10:38:02.553Z,19.99
2018-08-24T10:39:02.949Z,19.92
2018-08-24T10:40:02.490Z,20.07
2018-08-24T10:41:02.552Z,20.10
2018-08-24T10:42:02.368Z,20.18
2018-08-24T10:43:02.341Z,20.25
2018-08-24T10:44:02.273Z,20.28
2018-08-24T10:45:02.253Z,20.47
2018-08-24T10:46:02.181Z,20.53
2018-08-24T10:47:02.365Z,20.63
2018-08-24T10:48:02.083Z,20.56
2018-08-24T10:49:02.044Z,20.63
2018-08-24T10:50:02.022Z,20.69
2018-08-24T10:51:01.947Z,20.63
2018-08-24T10:52:01.908Z,20.78
2018-08-24T10:53:01.852Z,20.93
2018-08-24T10:54:01.810Z,21.02
2018-08-24T10:55:01.888Z,21.11
2018-08-24T10:56:01.911Z,21.06
2018-08-24T10:57:01.685Z,21.17
2018-08-24T10:58:01.629Z,21.26
2018-08-24T10:59:01.616Z,21.30
2018-08-24T11:00:01.545Z,21.27
2018-08-24T11:01:01.515Z,21.21
2018-08-24T11:02:01.522Z,21.30
2018-08-24T11:03:01.402Z,21.39
2018-08-24T11:04:01.374Z,21.35
2018-08-24T11:05:01.321Z,21.48
2018-08-24T11:06:01.283Z,21.43
2018-08-24T11:07:01.213Z,21.59
2018-08-24T11:08:01.189Z,21.67
2018-08-24T11:09:01.123Z,21.66
2018-08-24T11:10:01.077Z,21.73
2018-08-24T11:11:01.066Z,21.77
2018-08-24T11:12:00.986Z,21.96
2018-08-24T11:13:00.942Z,22.03
2018-08-24T11:14:00.898Z,22.03
2018-08-24T11:15:00.860Z,21.96
2018-08-24T11:16:00.838Z,21.81
2018-08-24T11:17:00.760Z,21.55
2018-08-24T11:18:00.709Z,21.45
2018-08-24T11:19:00.666Z,21.36
2018-08-24T11:20:00.622Z,21.33
2018-08-24T11:21:00.601Z,21.35
2018-08-24T11:22:00.531Z,21.33
2018-08-24T11:23:00.518Z,21.33
2018-08-24T11:24:00.439Z,21.32
2018-08-24T11:25:00.396Z,21.35
2018-08-24T11:26:00.436Z,21.32
2018-08-24T11:27:00.393Z,21.37
2018-08-24T11:28:00.262Z,21.40
2018-08-24T11:29:00.211Z,21.43
2018-08-24T11:30:00.170Z,21.48
2018-08-24T11:31:00.151Z,21.59
2018-08-24T11:32:00.079Z,21.66
2018-08-24T11:33:00.045Z,21.72
2018-08-24T11:34:00.023Z,21.89
2018-08-24T11:34:59.939Z,21.96
2018-08-24T11:35:59.977Z,22.04
2018-08-24T11:36:59.885Z,22.07
2018-08-24T11:37:59.808Z,22.08
2018-08-24T11:38:59.764Z,22.10
2018-08-24T11:39:59.711Z,22.11
2018-08-24T11:40:59.675Z,22.04
2018-08-24T11:41:59.680Z,22.01
2018-08-24T11:42:59.576Z,21.81
2018-08-24T11:43:59.533Z,21.67
2018-08-24T11:44:59.492Z,21.51
2018-08-24T11:45:59.447Z,21.42
2018-08-24T11:46:59.454Z,21.39
2018-08-24T11:47:59.441Z,21.39
2018-08-24T11:48:59.316Z,21.42
2018-08-24T11:49:59.263Z,21.33
2018-08-24T11:50:59.218Z,21.33
2018-08-24T11:51:59.198Z,21.27
2018-08-24T11:52:59.124Z,21.37
2018-08-24T11:53:59.088Z,21.35
2018-08-24T11:54:59.034Z,21.20
2018-08-24T11:55:58.996Z,21.32
2018-08-24T11:56:58.968Z,21.33
2018-08-24T11:57:58.899Z,21.37
2018-08-24T11:58:58.849Z,21.42
2018-08-24T11:59:58.808Z,21.48
2018-08-24T12:00:58.759Z,21.42
2018-08-24T12:01:58.803Z,21.42
2018-08-24T12:02:58.666Z,21.57
2018-08-24T12:03:58.627Z,21.52
2018-08-24T12:04:58.580Z,21.48
2018-08-24T12:05:58.532Z,21.39
2018-08-24T12:06:58.507Z,21.43
2018-08-24T12:07:58.556Z,21.48
2018-08-24T12:08:58.397Z,21.54
2018-08-24T12:09:58.348Z,21.63
2018-08-24T12:10:58.301Z,21.66
2018-08-24T12:11:58.304Z,21.67
2018-08-24T12:12:58.215Z,21.85
2018-08-24T12:13:58.238Z,21.96
2018-08-24T12:14:58.120Z,22.03
2018-08-24T12:15:58.090Z,22.04
2018-08-24T12:16:58.080Z,22.20
2018-08-24T12:17:57.987Z,22.22
2018-08-24T12:18:57.938Z,22.43
2018-08-24T12:19:57.898Z,22.38
2018-08-24T12:20:57.850Z,22.44
2018-08-24T12:21:57.829Z,22.54
2018-08-24T12:22:57.757Z,22.50
2018-08-24T12:23:57.709Z,22.48
2018-08-24T12:24:57.668Z,22.17
2018-08-24T12:25:57.625Z,21.89
2018-08-24T12:26:57.638Z,21.95
2018-08-24T12:27:57.531Z,21.82
2018-08-24T12:28:57.488Z,21.76
2018-08-24T12:29:57.442Z,21.61
2018-08-24T12:30:57.459Z,21.66
2018-08-24T12:31:57.377Z,21.51
2018-08-24T12:32:57.309Z,21.29
2018-08-24T12:33:57.259Z,21.29
2018-08-24T12:34:57.216Z,21.11
2018-08-24T12:35:57.165Z,21.14
2018-08-24T12:36:57.147Z,21.08
2018-08-24T12:37:57.143Z,21.12
2018-08-24T12:38:57.036Z,21.15
2018-08-24T12:39:56.993Z,21.08
2018-08-24T12:40:56.944Z,21.14
2018-08-24T12:41:56.929Z,21.11
2018-08-24T12:42:56.859Z,21.15
2018-08-24T12:43:56.802Z,21.10
2018-08-24T12:44:56.767Z,21.15
2018-08-24T12:45:56.711Z,21.08
2018-08-24T12:46:56.692Z,21.11
2018-08-24T12:47:56.634Z,21.14
2018-08-24T12:48:56.575Z,21.20
2018-08-24T12:49:56.533Z,21.24
2018-08-24T12:50:56.479Z,21.29
2018-08-24T12:51:56.488Z,21.30